Phaethon — SVAM2 — position and weather

sailwx.info

Track history (hours):
 
Tides and Currents Weather Stations Pressure Air Temp Water Temp Dewpoint Dewpoint Depression Visibility Wind Speed Wind Dir Waves Ship Positions

Phaethon

Last reported at 2016-Dec-08 22:30 UTC. Time now 2016-Dec-09 00:10 UTC.
Position N 36°32' E 013°46'.

Length 274 m; draft 15 m.

Type: Tanker. MMSI: 240836000.

Date/timePositionNaut miles runAvg speedWind from/ knotsBaromVisibWave heightAir tempDewpointWater temp
2016-Dec-08 22:30N 36°32' E 013°46'1512.7
2016-Dec-08 21:20N 36°27' E 014°03'1012.7
2016-Dec-08 20:33N 36°24' E 014°15'1312.7
2016-Dec-08 19:33N 36°19' E 014°29'1312.6
2016-Dec-08 18:33N 36°15' E 014°44'  
2016-Dec-01 06:15N 36°04' E 014°47'1013.8
2016-Dec-01 05:33N 36°08' E 014°36'1413.8
2016-Dec-01 04:33N 36°13' E 014°20'1413.8
2016-Dec-01 03:33N 36°18' E 014°04'1413.8
2016-Dec-01 02:33N 36°23' E 013°48'27913.6
2016-Nov-30 06:06N 38°20' E 008°30'26612.9
2016-Nov-29 09:32N 40°28' E 003°28'1313.8
2016-Nov-29 08:33N 40°32' E 003°11'1313.5
2016-Nov-29 07:33N 40°36' E 002°54'1313.1
2016-Nov-29 06:33N 40°41' E 002°38'1313.1
2016-Nov-29 05:33N 40°45' E 002°22'1312.6
2016-Nov-29 04:33N 40°49' E 002°06'1312.7
2016-Nov-29 03:33N 40°53' E 001°50'  
Track history (hours):
 
Tides and Currents Weather Stations Pressure Air Temp Water Temp Dewpoint Dewpoint Depression Visibility Wind Speed Wind Dir Waves Ship Positions

Phaethon

Last reported at 2016-Dec-08 22:30 UTC. Time now 2016-Dec-09 00:10 UTC.
Position N 36°32' E 013°46'.

Length 274 m; draft 15 m.

Type: Tanker. MMSI: 240836000.

Date/timePositionNaut miles runAvg speedWind from/ knotsBaromVisibWave heightAir tempDewpointWater temp
2016-Dec-08 22:30N 36°32' E 013°46'1512.7
2016-Dec-08 21:20N 36°27' E 014°03'1012.7
2016-Dec-08 20:33N 36°24' E 014°15'1312.7
2016-Dec-08 19:33N 36°19' E 014°29'1312.6
2016-Dec-08 18:33N 36°15' E 014°44'  
2016-Dec-01 06:15N 36°04' E 014°47'1013.8
2016-Dec-01 05:33N 36°08' E 014°36'1413.8
2016-Dec-01 04:33N 36°13' E 014°20'1413.8
2016-Dec-01 03:33N 36°18' E 014°04'1413.8
2016-Dec-01 02:33N 36°23' E 013°48'27913.6
2016-Nov-30 06:06N 38°20' E 008°30'26612.9
2016-Nov-29 09:32N 40°28' E 003°28'1313.8
2016-Nov-29 08:33N 40°32' E 003°11'1313.5
2016-Nov-29 07:33N 40°36' E 002°54'1313.1
2016-Nov-29 06:33N 40°41' E 002°38'1313.1
2016-Nov-29 05:33N 40°45' E 002°22'1312.6
2016-Nov-29 04:33N 40°49' E 002°06'1312.7
2016-Nov-29 03:33N 40°53' E 001°50'  

Dump ship's entire track history